Time;durP1;ratioP1;P1;durP2;ratioP2;P2;SDS_P1;SDS_P2;PMS_P1;PMS_P2;Temp;Humidity;BMP_temperature;BMP_pressure;BME280_temperature;BME280_humidity;BME280_pressure;Samples;Min_cycle;Max_cycle;Signal;HPM_P1;HPM_P2
2024/04/12 05:00:18;;;;;;;19.13;10.60;;;;;;;;;;6522758;21;20613;31
2024/04/12 05:02:49;;;;;;;24.47;9.10;;;;;;;;;;5311009;26;20504;-72
2024/04/12 05:05:22;;;;;;;19.80;9.17;;;;;;;;;;5311079;26;20789;-72
2024/04/12 05:07:49;;;;;;;28.90;9.80;;;;;;;;;;5310931;26;20449;-72
2024/04/12 05:10:15;;;;;;;30.73;9.60;;;;;;;;;;5321890;26;20513;-71
2024/04/12 05:12:42;;;;;;;18.03;9.90;;;;;;;;;;5287898;27;20450;-71
2024/04/12 05:15:30;;;;;;;19.07;9.20;;;;;;;;;;5315677;21;20498;-76
2024/04/12 05:18:03;;;;;;;21.63;8.70;;;;;;;;;;5276892;27;20442;-76
2024/04/12 05:20:38;;;;;;;19.20;8.50;;;;;;;;;;5275414;27;21009;-76
2024/04/12 05:23:08;;;;;;;19.00;9.13;;;;;;;;;;5269058;27;20469;-76
2024/04/12 05:25:34;;;;;;;18.70;9.20;;;;;;;;;;5273841;27;20510;-77
2024/04/12 05:28:00;;;;;;;19.67;9.67;;;;;;;;;;5275829;27;20524;-77
2024/04/12 05:30:26;;;;;;;20.13;8.27;;;;;;;;;;5277495;27;20446;-78
2024/04/12 05:32:53;;;;;;;26.10;9.97;;;;;;;;;;5240808;27;21067;-77
2024/04/12 05:35:26;;;;;;;20.83;8.80;;;;;;;;;;5211672;27;20485;-77
2024/04/12 05:37:52;;;;;;;19.53;8.43;;;;;;;;;;5222248;27;20521;-75
2024/04/12 05:40:21;;;;;;;30.23;9.30;;;;;;;;;;5229477;27;20477;-75
2024/04/12 05:42:47;;;;;;;20.30;7.63;;;;;;;;;;5220213;27;20508;-75
2024/04/12 05:45:19;;;;;;;22.77;8.73;;;;;;;;;;5231326;27;20539;-75
2024/04/12 05:47:45;;;;;;;23.80;9.20;;;;;;;;;;5239238;27;20526;-75
2024/04/12 05:50:12;;;;;;;10.93;7.07;;;;;;;;;;5242593;27;20928;-75
2024/04/12 05:52:38;;;;;;;18.67;7.57;;;;;;;;;;5239714;27;20481;-76
2024/04/12 05:55:11;;;;;;;19.60;7.37;;;;;;;;;;5224374;27;20607;-75
2024/04/12 05:57:37;;;;;;;18.83;8.03;;;;;;;;;;5234824;27;20532;-76
2024/04/12 06:00:09;;;;;;;17.30;8.33;;;;;;;;;;5251024;27;20500;-77
2024/04/12 06:02:36;;;;;;;25.03;7.73;;;;;;;;;;5228129;27;20456;-76
2024/04/12 06:05:05;;;;;;;18.20;8.17;;;;;;;;;;5212573;27;20514;-76
2024/04/12 06:07:35;;;;;;;20.83;7.97;;;;;;;;;;5223769;27;20584;-78
2024/04/12 06:10:01;;;;;;;17.93;8.37;;;;;;;;;;5222607;27;20481;-78
2024/04/12 06:12:33;;;;;;;23.63;7.97;;;;;;;;;;5226512;27;20898;-74
2024/04/12 06:15:03;;;;;;;19.57;8.07;;;;;;;;;;5276036;27;20516;-72
2024/04/12 06:17:29;;;;;;;16.10;7.23;;;;;;;;;;5247512;27;20465;-71
2024/04/12 06:19:59;;;;;;;21.97;7.80;;;;;;;;;;5250167;27;21011;-77
2024/04/12 06:22:31;;;;;;;15.10;8.50;;;;;;;;;;5252832;27;20483;-78
2024/04/12 06:25:01;;;;;;;17.40;7.80;;;;;;;;;;5244379;27;20483;-79
2024/04/12 06:27:33;;;;;;;17.27;7.10;;;;;;;;;;5250062;27;20454;-78
2024/04/12 06:29:59;;;;;;;12.40;8.37;;;;;;;;;;5248359;27;20459;-76
2024/04/12 06:32:26;;;;;;;17.90;8.37;;;;;;;;;;5247755;27;20463;-77
2024/04/12 06:34:52;;;;;;;16.77;8.10;;;;;;;;;;5246080;27;20754;-77
2024/04/12 06:37:21;;;;;;;16.50;8.67;;;;;;;;;;5245444;27;20595;-76
2024/04/12 06:39:48;;;;;;;15.67;7.70;;;;;;;;;;5247546;27;20843;-76
2024/04/12 06:42:15;;;;;;;27.13;8.87;;;;;;;;;;5242285;27;20587;-76
2024/04/12 06:44:42;;;;;;;16.67;8.00;;;;;;;;;;5246759;27;20472;-76
2024/04/12 06:47:13;;;;;;;21.40;8.17;;;;;;;;;;5247352;27;20850;-76
2024/04/12 06:49:44;;;;;;;21.73;8.43;;;;;;;;;;5245842;27;20511;-76
2024/04/12 06:52:10;;;;;;;21.20;8.47;;;;;;;;;;5249190;27;20452;-76
2024/04/12 06:54:41;;;;;;;21.00;9.87;;;;;;;;;;5247603;27;20542;-76
2024/04/12 06:57:08;;;;;;;20.13;9.27;;;;;;;;;;5244950;27;20522;-77
2024/04/12 06:59:40;;;;;;;15.23;6.77;;;;;;;;;;5241957;27;20471;-77
2024/04/12 07:02:06;;;;;;;13.43;7.40;;;;;;;;;;5247213;27;20885;-77
2024/04/12 07:04:32;;;;;;;12.57;6.80;;;;;;;;;;5246372;27;20448;-76
2024/04/12 07:07:00;;;;;;;15.83;8.10;;;;;;;;;;5246409;27;20452;-76
2024/04/12 07:09:26;;;;;;;12.23;6.80;;;;;;;;;;5246612;27;20507;-76
2024/04/12 07:11:52;;;;;;;13.90;8.30;;;;;;;;;;5246935;27;20762;-77
2024/04/12 07:14:22;;;;;;;16.50;7.70;;;;;;;;;;5246262;27;20443;-77
2024/04/12 07:16:48;;;;;;;12.47;7.47;;;;;;;;;;5247268;27;20521;-78
2024/04/12 07:19:18;;;;;;;18.90;7.50;;;;;;;;;;5262433;27;20435;-77
2024/04/12 07:21:44;;;;;;;20.10;8.17;;;;;;;;;;5266114;27;20459;-76
2024/04/12 07:24:15;;;;;;;12.80;7.23;;;;;;;;;;5253447;27;20542;-78
2024/04/12 07:26:42;;;;;;;17.17;7.47;;;;;;;;;;5264929;27;20467;-77
2024/04/12 07:29:09;;;;;;;12.80;6.30;;;;;;;;;;5251883;27;20531;-78
2024/04/12 07:31:36;;;;;;;14.60;6.90;;;;;;;;;;5260127;27;20458;-76
2024/04/12 07:34:03;;;;;;;18.43;7.30;;;;;;;;;;5262130;27;20569;-76
2024/04/12 07:36:32;;;;;;;15.17;7.00;;;;;;;;;;5263492;27;20468;-77
2024/04/12 07:39:01;;;;;;;13.03;7.07;;;;;;;;;;5261364;27;20452;-77
2024/04/12 07:41:27;;;;;;;20.47;8.03;;;;;;;;;;5264676;27;20492;-76
2024/04/12 07:43:55;;;;;;;15.60;8.07;;;;;;;;;;5264354;27;20467;-77
2024/04/12 07:46:27;;;;;;;21.53;8.07;;;;;;;;;;5253131;27;20456;-78
2024/04/12 07:48:57;;;;;;;13.03;7.63;;;;;;;;;;5248070;27;20579;-78
2024/04/12 07:51:28;;;;;;;15.83;6.20;;;;;;;;;;5248380;27;20440;-78
2024/04/12 07:53:54;;;;;;;13.10;6.67;;;;;;;;;;5247911;27;20432;-77
2024/04/12 07:56:21;;;;;;;13.10;7.10;;;;;;;;;;5247726;27;20508;-77
2024/04/12 07:59:29;;;;;;;21.27;7.40;;;;;;;;;;5249696;27;20590;-78
2024/04/12 08:01:37;;;;;;;16.73;6.87;;;;;;;;;;5244334;27;20658;-78
2024/04/12 08:04:15;;;;;;;11.37;5.97;;;;;;;;;;5246935;27;20496;-77
2024/04/12 08:09:24;;;;;;;22.47;6.97;;;;;;;;;;5248228;27;20563;-77
2024/04/12 08:11:51;;;;;;;17.80;6.30;;;;;;;;;;5264656;27;20448;-78
2024/04/12 08:14:22;;;;;;;11.00;5.83;;;;;;;;;;5250668;27;20451;-78
2024/04/12 08:16:52;;;;;;;8.90;6.57;;;;;;;;;;5244818;27;20891;-78
2024/04/12 08:19:21;;;;;;;18.07;7.47;;;;;;;;;;5246194;27;20553;-77
2024/04/12 08:21:48;;;;;;;14.77;6.87;;;;;;;;;;5246299;27;20476;-77
2024/04/12 08:24:23;;;;;;;13.20;6.40;;;;;;;;;;5247179;27;20447;-76
2024/04/12 08:26:51;;;;;;;17.20;7.83;;;;;;;;;;5245863;27;20482;-77
2024/04/12 08:29:23;;;;;;;14.77;7.33;;;;;;;;;;5245542;27;20452;-77
2024/04/12 08:31:49;;;;;;;21.83;6.80;;;;;;;;;;5245630;27;20986;-78
2024/04/12 08:34:16;;;;;;;14.60;6.83;;;;;;;;;;5244003;27;20463;-76
2024/04/12 08:36:44;;;;;;;15.73;7.10;;;;;;;;;;5246060;27;20448;-76
2024/04/12 08:39:25;;;;;;;13.97;7.00;;;;;;;;;;5246619;27;20967;-77
2024/04/12 08:41:57;;;;;;;18.17;7.67;;;;;;;;;;5247050;27;20507;-77
2024/04/12 08:44:24;;;;;;;15.10;7.73;;;;;;;;;;5246639;27;20447;-77
2024/04/12 08:46:50;;;;;;;17.33;6.73;;;;;;;;;;5246146;27;20552;-77
2024/04/12 08:49:17;;;;;;;15.70;6.97;;;;;;;;;;5247920;27;20455;-78
2024/04/12 08:51:46;;;;;;;16.53;6.87;;;;;;;;;;5244739;27;20576;-77
2024/04/12 08:54:15;;;;;;;15.60;7.57;;;;;;;;;;5245465;27;20448;-77
2024/04/12 08:56:45;;;;;;;11.97;6.77;;;;;;;;;;5243466;27;20500;-77
2024/04/12 08:59:17;;;;;;;15.50;6.70;;;;;;;;;;5244043;27;20463;-77
2024/04/12 09:01:43;;;;;;;13.00;7.13;;;;;;;;;;5245562;27;20504;-77
2024/04/12 09:04:14;;;;;;;21.87;8.30;;;;;;;;;;5247872;27;20444;-77
2024/04/12 09:06:41;;;;;;;16.63;7.27;;;;;;;;;;5251151;27;20459;-77
2024/04/12 09:09:13;;;;;;;12.47;6.80;;;;;;;;;;5246185;27;20471;-76
2024/04/12 09:11:39;;;;;;;18.03;7.90;;;;;;;;;;5246106;27;21050;-77
2024/04/12 09:14:19;;;;;;;18.90;7.43;;;;;;;;;;5250400;27;20549;-77
2024/04/12 09:16:48;;;;;;;12.00;7.50;;;;;;;;;;5249631;27;20502;-78
2024/04/12 09:19:14;;;;;;;21.00;7.50;;;;;;;;;;5249343;27;20576;-77
2024/04/12 09:21:58;;;;;;;70.13;10.37;;;;;;;;;;5248952;27;20503;-78
2024/04/12 09:24:31;;;;;;;18.90;7.57;;;;;;;;;;5246056;27;20892;-78
2024/04/12 09:26:58;;;;;;;15.73;6.80;;;;;;;;;;5243790;27;21006;-77
2024/04/12 09:29:27;;;;;;;24.20;8.20;;;;;;;;;;5245610;27;21035;-77
2024/04/12 09:34:46;;;;;;;19.13;7.77;;;;;;;;;;5248022;27;20519;-77
2024/04/12 09:37:29;;;;;;;15.57;7.57;;;;;;;;;;5245367;27;20463;-78
2024/04/12 09:42:38;;;;;;;15.90;7.67;;;;;;;;;;5236284;27;20903;-77
2024/04/12 09:45:08;;;;;;;12.33;7.33;;;;;;;;;;5244311;27;20472;-77
2024/04/12 10:37:28;;;;;;;23.50;8.70;;;;;;;;;;5241961;27;20564;-78
2024/04/12 10:39:55;;;;;;;19.17;9.50;;;;;;;;;;5243122;27;20475;-77
2024/04/12 10:42:25;;;;;;;15.73;7.70;;;;;;;;;;5243215;27;20628;-77
2024/04/12 10:44:56;;;;;;;13.17;7.63;;;;;;;;;;5242791;27;20543;-76
2024/04/12 10:47:22;;;;;;;12.07;8.20;;;;;;;;;;5241381;27;20848;-77
2024/04/12 10:49:49;;;;;;;15.80;7.40;;;;;;;;;;5250984;27;20504;-76
2024/04/12 10:52:15;;;;;;;18.40;8.00;;;;;;;;;;5241728;27;20456;-76
2024/04/12 10:54:42;;;;;;;14.40;7.80;;;;;;;;;;5242786;27;20809;-77
2024/04/12 10:57:11;;;;;;;14.50;7.40;;;;;;;;;;5241301;27;20455;-76
2024/04/12 10:59:42;;;;;;;12.83;7.00;;;;;;;;;;5243462;27;20459;-77
2024/04/12 11:02:10;;;;;;;15.00;7.70;;;;;;;;;;5243255;27;21002;-77
2024/04/12 11:07:22;;;;;;;14.53;7.57;;;;;;;;;;5210712;27;20485;-77
2024/04/12 11:09:57;;;;;;;11.17;7.70;;;;;;;;;;5225130;27;20440;-79
2024/04/12 11:12:39;;;;;;;16.33;7.83;;;;;;;;;;5246005;27;20559;-76
2024/04/12 11:31:06;;;;;;;19.67;7.53;;;;;;;;;;5246006;27;20534;-75
2024/04/12 11:32:06;;;;;;;17.00;7.93;;;;;;;;;;5208698;27;20501;-75
2024/04/12 11:34:32;;;;;;;15.90;7.67;;;;;;;;;;5209415;27;20437;-75
2024/04/12 11:37:05;;;;;;;19.20;8.90;;;;;;;;;;5208233;27;20617;-75
2024/04/12 11:39:35;;;;;;;17.80;7.40;;;;;;;;;;5209303;27;20985;-75
2024/04/12 11:42:01;;;;;;;18.27;9.07;;;;;;;;;;5209365;27;21125;-76
2024/04/12 11:44:27;;;;;;;14.17;6.80;;;;;;;;;;5215657;27;21062;-78
2024/04/12 11:46:56;;;;;;;21.40;8.37;;;;;;;;;;5235018;27;20457;-78
2024/04/12 11:49:26;;;;;;;13.40;8.40;;;;;;;;;;5209404;27;20505;-77
2024/04/12 11:51:55;;;;;;;15.27;9.23;;;;;;;;;;5209693;27;20545;-77
2024/04/12 11:54:28;;;;;;;16.70;9.73;;;;;;;;;;5208987;27;20542;-75
2024/04/12 11:56:55;;;;;;;18.43;9.27;;;;;;;;;;5209435;27;20557;-77
2024/04/12 11:59:27;;;;;;;14.80;9.30;;;;;;;;;;5222763;27;20590;-77
2024/04/12 12:01:53;;;;;;;15.70;7.93;;;;;;;;;;5242523;27;20840;-77
2024/04/12 12:04:21;;;;;;;13.00;7.43;;;;;;;;;;5242282;27;20495;-78
2024/04/12 12:06:48;;;;;;;15.70;8.77;;;;;;;;;;5242254;27;20440;-78
2024/04/12 12:09:14;;;;;;;17.80;10.00;;;;;;;;;;5242350;27;20874;-78
2024/04/12 12:11:43;;;;;;;15.77;8.97;;;;;;;;;;5240024;27;20455;-77
2024/04/12 12:14:10;;;;;;;14.87;8.07;;;;;;;;;;5242004;27;20532;-77
2024/04/12 12:16:36;;;;;;;23.63;8.93;;;;;;;;;;5240385;27;20550;-78
2024/04/12 12:19:06;;;;;;;17.60;8.90;;;;;;;;;;5241093;27;20531;-75
2024/04/12 12:21:32;;;;;;;15.60;9.17;;;;;;;;;;5243047;27;20479;-77
2024/04/12 12:23:59;;;;;;;18.60;10.37;;;;;;;;;;5242814;27;20512;-76
2024/04/12 12:26:25;;;;;;;39.50;11.20;;;;;;;;;;5244225;27;20522;-74
2024/04/12 12:28:51;;;;;;;17.43;9.37;;;;;;;;;;5243162;27;20448;-75
2024/04/12 12:31:18;;;;;;;20.50;10.40;;;;;;;;;;5243267;27;20969;-75
2024/04/12 12:33:45;;;;;;;16.60;9.10;;;;;;;;;;5242935;27;20527;-76
2024/04/12 12:36:11;;;;;;;20.33;11.47;;;;;;;;;;5242552;27;20842;-75
2024/04/12 12:38:41;;;;;;;24.33;10.30;;;;;;;;;;5242836;27;20459;-75
2024/04/12 12:41:08;;;;;;;25.80;9.93;;;;;;;;;;5242986;27;20576;-76
2024/04/12 12:43:40;;;;;;;18.77;10.13;;;;;;;;;;5242538;27;20498;-77
2024/04/12 12:46:07;;;;;;;18.60;11.07;;;;;;;;;;5242359;27;20456;-75
2024/04/12 12:48:33;;;;;;;20.57;11.10;;;;;;;;;;5243142;27;20459;-75
2024/04/12 12:50:59;;;;;;;17.07;9.67;;;;;;;;;;5242721;27;20447;-76
2024/04/12 12:53:27;;;;;;;21.30;10.30;;;;;;;;;;5242526;27;20475;-76
2024/04/12 12:55:55;;;;;;;28.20;9.37;;;;;;;;;;5242355;27;20531;-76
2024/04/12 12:58:25;;;;;;;21.87;10.33;;;;;;;;;;5243446;27;20459;-76
2024/04/12 13:00:51;;;;;;;18.50;9.60;;;;;;;;;;5242457;27;20460;-77
2024/04/12 13:03:17;;;;;;;19.73;10.93;;;;;;;;;;5242434;27;20459;-76
2024/04/12 13:05:48;;;;;;;19.83;9.77;;;;;;;;;;5242388;27;20528;-76
2024/04/12 13:08:18;;;;;;;26.87;10.53;;;;;;;;;;5242361;27;20796;-76
2024/04/12 13:10:46;;;;;;;22.07;9.90;;;;;;;;;;5243370;27;20451;-76
2024/04/12 13:13:17;;;;;;;24.00;10.50;;;;;;;;;;5242862;27;20539;-76
2024/04/12 13:15:44;;;;;;;23.20;10.73;;;;;;;;;;5217412;27;20473;-76
2024/04/12 13:18:10;;;;;;;18.90;10.90;;;;;;;;;;5210141;27;20473;-76
2024/04/12 13:20:36;;;;;;;20.17;10.20;;;;;;;;;;5209936;27;20457;-76
2024/04/12 13:23:05;;;;;;;20.03;10.03;;;;;;;;;;5209715;27;20509;-76
2024/04/12 13:25:31;;;;;;;21.73;9.10;;;;;;;;;;5218588;27;20476;-76
2024/04/12 13:27:57;;;;;;;13.37;7.80;;;;;;;;;;5255178;27;21085;-76
2024/04/12 13:30:23;;;;;;;18.03;8.37;;;;;;;;;;5208799;27;20441;-76
2024/04/12 13:32:52;;;;;;;18.47;8.00;;;;;;;;;;5208957;27;20445;-76
2024/04/12 13:35:19;;;;;;;15.10;7.77;;;;;;;;;;5207577;27;20906;-76
2024/04/12 13:37:45;;;;;;;19.33;8.10;;;;;;;;;;5209366;27;20445;-76
2024/04/12 13:40:18;;;;;;;22.43;8.80;;;;;;;;;;5209368;27;20578;-76
2024/04/12 13:42:46;;;;;;;20.47;8.03;;;;;;;;;;5209816;27;20456;-77
2024/04/12 13:50:57;;;;;;;14.20;6.83;;;;;;;;;;5242133;27;20502;-78
2024/04/12 13:53:32;;;;;;;12.93;6.57;;;;;;;;;;5242280;27;20498;-79
2024/04/12 13:58:48;;;;;;;16.23;6.03;;;;;;;;;;5242956;27;20961;-77
2024/04/12 14:01:15;;;;;;;14.10;5.40;;;;;;;;;;5240978;27;20610;-77
2024/04/12 14:03:40;;;;;;;18.53;7.17;;;;;;;;;;5242184;27;20475;-77
2024/04/12 14:06:06;;;;;;;12.90;6.50;;;;;;;;;;5242139;27;20599;-77
2024/04/12 14:08:32;;;;;;;14.17;6.33;;;;;;;;;;5242575;27;20937;-77
2024/04/12 14:11:00;;;;;;;13.67;5.87;;;;;;;;;;5242579;27;20471;-76
2024/04/12 14:13:28;;;;;;;10.80;5.30;;;;;;;;;;5242975;27;20460;-76
2024/04/12 14:15:54;;;;;;;11.60;4.80;;;;;;;;;;5241025;27;20620;-77
2024/04/12 14:18:20;;;;;;;16.23;5.33;;;;;;;;;;5242914;27;20796;-77
2024/04/12 14:20:46;;;;;;;14.33;4.40;;;;;;;;;;5241085;27;20484;-77
2024/04/12 14:23:12;;;;;;;9.33;4.70;;;;;;;;;;5242543;27;20818;-78
2024/04/12 14:25:38;;;;;;;15.63;4.47;;;;;;;;;;5240953;27;20595;-77
2024/04/12 14:28:04;;;;;;;12.77;5.10;;;;;;;;;;5242053;27;20537;-78
2024/04/12 14:30:30;;;;;;;10.97;4.40;;;;;;;;;;5242440;27;20455;-78
2024/04/12 14:32:56;;;;;;;12.27;4.53;;;;;;;;;;5240457;27;20467;-77
2024/04/12 14:35:22;;;;;;;13.00;4.57;;;;;;;;;;5243328;27;20471;-77
2024/04/12 14:37:48;;;;;;;14.47;4.33;;;;;;;;;;5240548;27;20794;-77
2024/04/12 14:40:21;;;;;;;8.67;4.40;;;;;;;;;;5239556;27;20479;-77
2024/04/12 14:42:47;;;;;;;7.90;4.70;;;;;;;;;;5240110;27;20828;-77
2024/04/12 14:45:13;;;;;;;15.20;4.37;;;;;;;;;;5243483;27;20476;-76
2024/04/12 14:47:42;;;;;;;10.37;3.93;;;;;;;;;;5247950;27;20483;-75
2024/04/12 14:50:11;;;;;;;13.00;4.20;;;;;;;;;;5245385;27;21027;-76
2024/04/12 14:52:43;;;;;;;11.77;3.20;;;;;;;;;;5232886;27;20551;-75
2024/04/12 14:55:12;;;;;;;7.70;3.90;;;;;;;;;;5238672;27;20668;-76
2024/04/12 14:57:46;;;;;;;5.30;3.37;;;;;;;;;;5219402;27;20485;-78
2024/04/12 15:00:13;;;;;;;12.83;3.27;;;;;;;;;;5244420;27;20856;-75
2024/04/12 15:49:21;;;;;;;9.47;3.80;;;;;;;;;;5244205;27;20507;-77
2024/04/12 15:51:47;;;;;;;10.73;3.70;;;;;;;;;;5243150;27;20578;-76
2024/04/12 15:54:13;;;;;;;8.40;3.57;;;;;;;;;;5243458;27;20563;-77
2024/04/12 16:13:06;;;;;;;6.20;3.50;;;;;;;;;;5277596;27;20508;-76
2024/04/12 16:15:33;;;;;;;13.13;3.50;;;;;;;;;;5277420;27;20471;-76
2024/04/12 16:17:59;;;;;;;7.47;3.47;;;;;;;;;;5269448;27;20547;-76
2024/04/12 16:20:25;;;;;;;13.97;3.97;;;;;;;;;;5243293;27;20766;-75
2024/04/12 16:22:51;;;;;;;9.90;3.90;;;;;;;;;;5243300;27;20519;-75
2024/04/12 16:25:17;;;;;;;11.30;3.57;;;;;;;;;;5242884;27;20483;-76
2024/04/12 16:27:43;;;;;;;8.03;3.07;;;;;;;;;;5243874;27;20928;-76
2024/04/12 16:30:09;;;;;;;8.97;3.27;;;;;;;;;;5243502;27;20508;-76
2024/04/12 16:32:36;;;;;;;8.00;3.37;;;;;;;;;;5243311;27;20456;-76
2024/04/12 16:35:02;;;;;;;6.47;3.50;;;;;;;;;;5243780;27;20464;-76
2024/04/12 16:37:28;;;;;;;8.83;2.83;;;;;;;;;;5243293;27;20815;-75
2024/04/12 16:39:54;;;;;;;9.53;3.27;;;;;;;;;;5242831;27;20512;-76
2024/04/12 16:42:20;;;;;;;6.67;3.03;;;;;;;;;;5243490;27;20512;-76
2024/04/12 16:44:46;;;;;;;8.67;2.40;;;;;;;;;;5242374;27;20820;-76
2024/04/12 16:47:13;;;;;;;5.63;3.27;;;;;;;;;;5242710;27;20452;-76
2024/04/12 16:49:39;;;;;;;15.40;4.10;;;;;;;;;;5243055;27;20455;-75
2024/04/12 16:52:05;;;;;;;6.27;2.80;;;;;;;;;;5243266;27;20448;-76
2024/04/12 16:54:31;;;;;;;11.33;3.10;;;;;;;;;;5243316;27;20539;-77
2024/04/12 16:56:59;;;;;;;12.00;2.47;;;;;;;;;;5278137;27;20454;-76
2024/04/12 16:59:25;;;;;;;9.33;2.80;;;;;;;;;;5277053;27;20517;-76
2024/04/12 17:01:50;;;;;;;4.57;2.80;;;;;;;;;;5276479;27;20450;-76
2024/04/12 17:04:17;;;;;;;8.40;3.40;;;;;;;;;;5265726;27;20485;-76
2024/04/12 17:06:43;;;;;;;5.40;2.57;;;;;;;;;;5239161;27;21019;-76
2024/04/12 17:09:09;;;;;;;6.80;2.90;;;;;;;;;;5240261;27;20498;-76
2024/04/12 17:11:38;;;;;;;11.30;3.33;;;;;;;;;;5240695;27;20576;-76
2024/04/12 17:14:05;;;;;;;6.90;2.93;;;;;;;;;;5241369;27;20479;-77
2024/04/12 17:16:31;;;;;;;7.73;3.40;;;;;;;;;;5249938;27;21044;-77
2024/04/12 17:18:57;;;;;;;6.50;3.20;;;;;;;;;;5250275;27;20566;-78
2024/04/12 17:21:22;;;;;;;6.03;3.07;;;;;;;;;;5259356;27;20464;-77
2024/04/12 17:23:48;;;;;;;6.13;2.80;;;;;;;;;;5260747;27;20516;-78
2024/04/12 17:26:15;;;;;;;11.13;3.53;;;;;;;;;;5259059;27;20554;-77
2024/04/12 17:28:41;;;;;;;5.47;2.80;;;;;;;;;;5261966;27;20505;-76
2024/04/12 17:31:07;;;;;;;5.07;3.13;;;;;;;;;;5262796;27;20468;-78
2024/04/12 17:33:33;;;;;;;7.43;2.90;;;;;;;;;;5260878;27;20503;-77
2024/04/12 17:36:06;;;;;;;6.27;3.37;;;;;;;;;;5256193;27;20491;-78
2024/04/12 17:38:32;;;;;;;8.87;2.60;;;;;;;;;;5252465;27;20498;-77
2024/04/12 17:40:59;;;;;;;10.13;3.10;;;;;;;;;;5261152;27;20484;-78
2024/04/12 17:43:25;;;;;;;5.57;2.70;;;;;;;;;;5253385;27;20519;-77
2024/04/12 17:45:50;;;;;;;8.07;3.30;;;;;;;;;;5249034;27;20471;-78
2024/04/12 17:48:16;;;;;;;5.60;2.80;;;;;;;;;;5249566;27;20922;-77
2024/04/12 17:50:51;;;;;;;7.00;2.60;;;;;;;;;;5247622;27;20574;-79
2024/04/12 17:53:17;;;;;;;7.27;3.23;;;;;;;;;;5247799;27;20451;-77
2024/04/12 17:55:43;;;;;;;7.40;2.60;;;;;;;;;;5248275;27;20520;-77
2024/04/12 17:58:09;;;;;;;8.80;3.40;;;;;;;;;;5253233;27;20508;-77
2024/04/12 18:00:35;;;;;;;8.50;3.10;;;;;;;;;;5268634;27;20590;-78
2024/04/12 18:03:01;;;;;;;5.73;2.53;;;;;;;;;;5270697;27;20480;-76
2024/04/12 18:05:27;;;;;;;6.17;2.50;;;;;;;;;;5252350;27;20526;-77
2024/04/12 18:07:55;;;;;;;7.33;3.20;;;;;;;;;;5251908;27;20472;-77
2024/04/12 18:10:21;;;;;;;12.67;2.90;;;;;;;;;;5256244;27;20553;-78
2024/04/12 18:12:47;;;;;;;8.67;2.53;;;;;;;;;;5254753;27;20471;-79
2024/04/12 18:15:13;;;;;;;11.07;2.90;;;;;;;;;;5269626;27;20505;-79
2024/04/12 18:17:39;;;;;;;7.30;2.43;;;;;;;;;;5283393;27;20535;-78
2024/04/12 18:20:09;;;;;;;9.20;2.67;;;;;;;;;;5288233;27;20474;-78
2024/04/12 18:22:35;;;;;;;9.17;4.70;;;;;;;;;;5253281;27;20468;-78
2024/04/12 18:25:01;;;;;;;20.37;8.53;;;;;;;;;;5255216;27;20585;-77
2024/04/12 18:27:27;;;;;;;9.67;4.90;;;;;;;;;;5253707;27;20502;-78
2024/04/12 18:29:54;;;;;;;17.83;4.43;;;;;;;;;;5253046;27;20467;-78
2024/04/12 18:32:21;;;;;;;15.47;5.80;;;;;;;;;;5252221;27;20459;-78
2024/04/12 18:34:51;;;;;;;15.03;6.93;;;;;;;;;;5253956;27;20531;-77
2024/04/12 18:45:31;;;;;;;15.77;5.40;;;;;;;;;;5251159;27;20523;-78
2024/04/12 18:48:00;;;;;;;9.23;4.80;;;;;;;;;;5251876;27;20447;-78
2024/04/12 18:50:27;;;;;;;14.77;5.00;;;;;;;;;;5251218;27;20521;-77
2024/04/12 18:52:53;;;;;;;10.33;5.67;;;;;;;;;;5251778;27;20463;-77
2024/04/12 18:55:22;;;;;;;11.73;5.50;;;;;;;;;;5253295;27;20467;-77
2024/04/12 18:57:48;;;;;;;16.83;5.90;;;;;;;;;;5250058;27;20963;-78
2024/04/12 19:00:14;;;;;;;13.90;4.90;;;;;;;;;;5250362;27;20471;-79
2024/04/12 19:02:40;;;;;;;9.77;4.30;;;;;;;;;;5254331;27;20460;-79
2024/04/12 19:05:07;;;;;;;14.97;4.07;;;;;;;;;;5250026;27;20952;-78
2024/04/12 19:07:33;;;;;;;6.93;4.07;;;;;;;;;;5273078;27;20487;-78
2024/04/12 19:10:04;;;;;;;9.40;4.70;;;;;;;;;;5283492;27;20506;-78
2024/04/12 19:12:31;;;;;;;13.83;4.40;;;;;;;;;;5286003;27;20458;-79
2024/04/12 19:14:57;;;;;;;15.13;4.50;;;;;;;;;;5286018;27;20474;-79
2024/04/12 19:17:23;;;;;;;15.40;5.27;;;;;;;;;;5284715;27;20462;-78
2024/04/12 19:19:51;;;;;;;14.07;5.30;;;;;;;;;;5282797;26;20961;-79
2024/04/12 19:22:16;;;;;;;8.10;4.40;;;;;;;;;;5281865;27;20546;-78
2024/04/12 19:24:42;;;;;;;11.40;5.63;;;;;;;;;;5282507;27;20474;-77
2024/04/12 19:27:08;;;;;;;14.30;4.70;;;;;;;;;;5283151;27;20462;-79
2024/04/12 19:29:35;;;;;;;11.87;5.03;;;;;;;;;;5289784;27;20506;-77
2024/04/12 19:32:01;;;;;;;10.00;5.00;;;;;;;;;;5295102;27;20545;-77
2024/04/12 19:34:27;;;;;;;13.10;5.37;;;;;;;;;;5295012;27;20501;-78
2024/04/12 19:36:53;;;;;;;8.10;4.10;;;;;;;;;;5292391;27;20458;-78
2024/04/12 19:39:19;;;;;;;21.87;5.73;;;;;;;;;;5290367;27;20470;-78
2024/04/12 19:41:45;;;;;;;8.07;4.30;;;;;;;;;;5280981;27;20531;-78
2024/04/12 19:44:11;;;;;;;9.90;4.40;;;;;;;;;;5249246;27;20806;-79
2024/04/12 19:46:37;;;;;;;14.17;5.10;;;;;;;;;;5250021;27;20562;-78
2024/04/12 19:49:04;;;;;;;8.23;4.10;;;;;;;;;;5250890;27;20515;-79
2024/04/12 19:51:30;;;;;;;15.20;5.97;;;;;;;;;;5249128;27;20638;-79
2024/04/12 19:53:56;;;;;;;17.57;5.00;;;;;;;;;;5249781;27;20476;-79
2024/04/12 19:56:24;;;;;;;13.90;6.10;;;;;;;;;;5253254;27;20573;-79
2024/04/12 19:58:51;;;;;;;16.00;5.67;;;;;;;;;;5251638;27;20535;-79
2024/04/12 20:01:17;;;;;;;14.80;5.63;;;;;;;;;;5251242;27;20511;-78
2024/04/12 20:03:43;;;;;;;9.63;5.90;;;;;;;;;;5251359;27;20541;-78
2024/04/12 20:06:09;;;;;;;15.07;7.30;;;;;;;;;;5261071;27;20499;-77
2024/04/12 20:08:35;;;;;;;12.63;5.77;;;;;;;;;;5258571;27;20594;-78
2024/04/12 20:11:02;;;;;;;21.27;6.90;;;;;;;;;;5285451;27;20529;-78
2024/04/12 20:13:29;;;;;;;20.10;7.67;;;;;;;;;;5284202;27;20546;-78
2024/04/12 20:15:55;;;;;;;21.07;7.33;;;;;;;;;;5282771;27;20553;-78
2024/04/12 20:18:22;;;;;;;13.50;6.40;;;;;;;;;;5290199;27;20526;-77
2024/04/12 20:20:54;;;;;;;13.77;6.57;;;;;;;;;;5291109;27;20446;-78
2024/04/12 20:23:21;;;;;;;14.00;6.77;;;;;;;;;;5289291;27;20514;-78
2024/04/12 20:25:48;;;;;;;12.80;7.73;;;;;;;;;;5286108;27;20627;-78
2024/04/12 20:28:18;;;;;;;15.73;7.80;;;;;;;;;;5274617;27;20649;-78
2024/04/12 20:30:58;;;;;;;18.50;7.50;;;;;;;;;;5259507;27;20470;-79
2024/04/12 20:33:35;;;;;;;13.33;7.30;;;;;;;;;;5286130;27;21053;-78
2024/04/12 20:36:17;;;;;;;15.00;6.90;;;;;;;;;;5282921;27;20600;-79
2024/04/12 20:38:43;;;;;;;11.60;6.40;;;;;;;;;;5282089;27;20907;-78
2024/04/12 20:41:09;;;;;;;14.30;7.90;;;;;;;;;;5281688;27;20466;-77
2024/04/12 20:43:35;;;;;;;23.60;8.03;;;;;;;;;;5289310;27;20507;-76
2024/04/12 20:46:02;;;;;;;17.60;7.23;;;;;;;;;;5287037;27;20478;-77
2024/04/12 20:48:27;;;;;;;14.50;7.10;;;;;;;;;;5280824;27;20558;-77
2024/04/12 20:50:53;;;;;;;23.37;7.70;;;;;;;;;;5281223;27;20482;-78
2024/04/12 20:53:19;;;;;;;17.77;8.30;;;;;;;;;;5283773;27;20526;-78
2024/04/12 20:55:46;;;;;;;16.03;7.50;;;;;;;;;;5252289;27;20598;-78
2024/04/12 20:58:12;;;;;;;19.20;7.97;;;;;;;;;;5247079;27;20479;-79
2024/04/12 21:00:38;;;;;;;19.33;8.10;;;;;;;;;;5247831;27;20460;-78
2024/04/12 21:03:04;;;;;;;13.57;7.70;;;;;;;;;;5245738;27;20512;-76
2024/04/12 21:05:32;;;;;;;14.27;6.87;;;;;;;;;;5255638;27;20606;-77
2024/04/12 21:07:59;;;;;;;16.80;7.67;;;;;;;;;;5240438;27;20531;-78
2024/04/12 21:10:27;;;;;;;19.00;7.30;;;;;;;;;;5251325;27;20471;-77
2024/04/12 21:12:53;;;;;;;12.63;8.13;;;;;;;;;;5257307;27;20448;-77
2024/04/12 21:15:19;;;;;;;13.83;7.83;;;;;;;;;;5257189;27;20471;-77
2024/04/12 21:17:48;;;;;;;18.47;7.80;;;;;;;;;;5267211;27;20522;-77
2024/04/12 21:20:15;;;;;;;24.73;8.10;;;;;;;;;;5291789;27;20510;-76
2024/04/12 21:22:41;;;;;;;20.10;8.83;;;;;;;;;;5296248;26;20450;-78
2024/04/12 21:25:07;;;;;;;17.67;8.47;;;;;;;;;;5291523;27;20471;-77
2024/04/12 21:27:33;;;;;;;21.03;8.93;;;;;;;;;;5294544;27;20465;-77
2024/04/12 21:29:59;;;;;;;15.20;7.93;;;;;;;;;;5293028;27;20462;-76
2024/04/12 21:32:27;;;;;;;15.17;8.20;;;;;;;;;;5293607;27;20490;-77
2024/04/12 21:34:53;;;;;;;16.80;7.87;;;;;;;;;;5292795;27;20575;-77
2024/04/12 21:37:19;;;;;;;20.00;7.77;;;;;;;;;;5293364;27;20450;-76
2024/04/12 21:39:45;;;;;;;13.90;7.63;;;;;;;;;;5292983;27;20466;-77
2024/04/12 21:42:11;;;;;;;21.83;8.57;;;;;;;;;;5270616;27;20603;-77
2024/04/12 21:44:38;;;;;;;18.97;8.97;;;;;;;;;;5259644;27;20483;-76
2024/04/12 21:47:04;;;;;;;13.00;7.77;;;;;;;;;;5259797;27;20523;-77
2024/04/12 21:49:32;;;;;;;20.43;8.43;;;;;;;;;;5259740;27;20544;-77
2024/04/12 21:51:58;;;;;;;26.23;8.00;;;;;;;;;;5258093;27;20487;-77
2024/04/12 21:54:25;;;;;;;18.90;8.47;;;;;;;;;;5257880;27;20567;-76
2024/04/12 21:56:51;;;;;;;16.40;8.43;;;;;;;;;;5257789;27;20511;-75
2024/04/12 21:59:19;;;;;;;15.03;7.40;;;;;;;;;;5260377;27;20534;-76
2024/04/12 22:01:45;;;;;;;21.83;7.90;;;;;;;;;;5257676;27;20504;-76
2024/04/12 22:04:11;;;;;;;14.33;7.50;;;;;;;;;;5246870;27;20526;-77
2024/04/12 22:06:37;;;;;;;18.37;8.63;;;;;;;;;;5279865;27;20681;-77
2024/04/12 22:09:03;;;;;;;13.73;6.90;;;;;;;;;;5280509;27;20513;-77